• Join FlightAware (Why Join?)
  • Login
  • US Flag 
12:23PM EDT


 

Airport Tracker/Info


-or-


 

Live Flight TrackerFlight Track Log ✈ PDT4314 ✈ 29-Oct-2013 ✈ KBGM - KPHL

Flight Track Log - Related Links

Times and Time Zones

All times are in EDT time to prevent confusion due to time zone crossing. See the PDT4314 flight status page for this flight to view local times or setup timezone preferences in your user account.

Time Position Orientation Groundspeed Altitude Reporting Facility
EDT Latitude Longitude Course Direction KTS MPH feet Rate Location/Type
06:13PM 41.8345 -75.8577 153° Southeast  Level Estimated
06:14PM 41.7816 -75.8405 161° South  Level Estimated
06:15PM 41.7286 -75.8242 167° South  Level FlightAware Approximate
06:16PM 41.6756 -75.8080 167° South  Level FlightAware Approximate
06:17PM 41.6227 -75.7909 162° South  Level Estimated
06:18PM 41.5703 -75.7718 165° South  Level FlightAware Approximate
06:19PM 41.5178 -75.7528 165° South  Level FlightAware Approximate
06:20PM 41.4653 -75.7338 165° South  Level FlightAware Approximate
06:21PM 41.4128 -75.7148 165° South  Level FlightAware Approximate
06:22PM 41.3599 -75.6982 159° South  Level Estimated
06:23PM 41.3070 -75.6815 163° South  Level Estimated
06:24PM 41.2549 -75.6609 163° South  Level FlightAware Approximate
06:25PM 41.2028 -75.6403 163° South  Level FlightAware Approximate
06:26PM 41.1506 -75.6198 163° South  Level FlightAware Approximate
06:27PM 41.0985 -75.5993 163° South  Level FlightAware Approximate
06:28PM 41.0455 -75.5835 190° South  Level Estimated
06:29PM 40.9915 -75.5751 173° South  Level FlightAware Approximate
06:30PM 40.9374 -75.5668 173° South  Level FlightAware Approximate
06:30PM 40.7500 -75.6000 180° South 254 292 6,000  Level Philadelphia TRACON
06:31PM 40.8834 -75.5585 173° South  Level FlightAware Approximate
06:31PM 40.7000 -75.6000 180° South 240 276 5,400  Level Philadelphia TRACON
06:32PM 40.8306 -75.5417 187° South  Level Estimated
06:32PM 40.6333 -75.5833 169° South 235 270 5,000  Level Philadelphia TRACON
06:33PM 40.7681 -75.5380 177° South  Level FlightAware Approximate
06:33PM 40.5667 -75.5833 180° South 230 265 5,000  Level Philadelphia TRACON
06:34PM 40.7075 -75.5177 190° South  Level Estimated
06:34PM 40.5000 -75.5833 180° South 227 261 5,000  Level Philadelphia TRACON
06:35PM 40.6451 -75.5221 183° South  Level FlightAware Approximate
06:35PM 40.4500 -75.5333 143° Southeast 230 265 5,000  Level Philadelphia TRACON
06:36PM 40.5848 -75.5000 180° South  Level Estimated
06:36PM 40.4000 -75.5000 153° Southeast 227 261 5,000  Level Philadelphia TRACON
06:37PM 40.3500 -75.4500 143° Southeast 229 264 5,000  Level Philadelphia TRACON
06:38PM 40.2833 -75.4000 150° Southeast 230 265 5,000 -480 Level Philadelphia TRACON
06:39PM 40.2333 -75.3500 143° Southeast 235 270 4,100 -540 Descending Philadelphia TRACON
06:40PM 40.1833 -75.3167 153° Southeast 205 236 4,000 -60 Descending Philadelphia TRACON
06:41PM 40.1333 -75.2833 153° Southeast 202 232 4,000  Level Philadelphia TRACON
06:42PM 40.0667 -75.2833 180° South 193 222 4,000  Level Philadelphia TRACON
06:43PM 40.0167 -75.2833 180° South 193 222 4,000  Level Philadelphia TRACON
06:44PM 40.0000 -75.2167 108° East 205 236 4,000  Level Philadelphia TRACON
06:45PM 40.0000 -75.1333 90° East 216 249 4,000 -300 Level Philadelphia TRACON
06:46PM 40.0000 -75.0667 90° East 207 238 3,500 -540 Descending Philadelphia TRACON
06:47PM 40.0000 -75.0000 90° East 197 227 3,000 -300 Descending Philadelphia TRACON
06:49PM 39.9500 -75.0000 180° South 198 228 2,900 -300 Descending Philadelphia TRACON
06:50PM 39.9167 -75.0500 229° Southwest 163 188 2,400 -480 Descending Philadelphia TRACON
06:50PM 39.9167 -75.1000 270° West 148 170 2,100 -600 Descending Philadelphia TRACON
06:52PM 39.9000 -75.1500 247° West 122 140 1,200 -780 Descending Philadelphia TRACON
06:52PM 39.8833 -75.1833 237° Southwest 120 138 600 -720 Descending Philadelphia TRACON